sensor_id;sensor_type;location;lat;lon;timestamp;P1;durP1;ratioP1;P2;durP2;ratioP2
33403;SDS011;19751;40.274;18.268;2023-04-03T00:00:38;20.25;;;6.57;;
33403;SDS011;19751;40.274;18.268;2023-04-03T00:03:04;14.85;;;6.72;;
33403;SDS011;19751;40.274;18.268;2023-04-03T00:05:29;15.32;;;5.55;;
33403;SDS011;19751;40.274;18.268;2023-04-03T00:07:55;16.88;;;6.57;;
33403;SDS011;19751;40.274;18.268;2023-04-03T00:10:20;14.45;;;6.18;;
33403;SDS011;19751;40.274;18.268;2023-04-03T00:12:46;14.07;;;6.38;;
33403;SDS011;19751;40.274;18.268;2023-04-03T00:15:12;13.07;;;6.85;;
33403;SDS011;19751;40.274;18.268;2023-04-03T00:17:37;10.95;;;6.03;;
33403;SDS011;19751;40.274;18.268;2023-04-03T00:20:03;12.77;;;6.28;;
33403;SDS011;19751;40.274;18.268;2023-04-03T00:22:30;11.27;;;6.10;;
33403;SDS011;19751;40.274;18.268;2023-04-03T00:24:55;11.13;;;6.40;;
33403;SDS011;19751;40.274;18.268;2023-04-03T00:27:21;9.85;;;5.20;;
33403;SDS011;19751;40.274;18.268;2023-04-03T00:29:46;14.63;;;6.90;;
33403;SDS011;19751;40.274;18.268;2023-04-03T00:32:12;16.52;;;6.18;;
33403;SDS011;19751;40.274;18.268;2023-04-03T00:34:38;16.63;;;6.97;;
33403;SDS011;19751;40.274;18.268;2023-04-03T00:37:03;18.80;;;6.45;;
33403;SDS011;19751;40.274;18.268;2023-04-03T00:39:29;15.75;;;7.30;;
33403;SDS011;19751;40.274;18.268;2023-04-03T00:41:55;11.85;;;5.75;;
33403;SDS011;19751;40.274;18.268;2023-04-03T00:44:22;20.02;;;6.15;;
33403;SDS011;19751;40.274;18.268;2023-04-03T00:47:11;17.55;;;5.47;;
33403;SDS011;19751;40.274;18.268;2023-04-03T00:49:40;16.33;;;5.75;;
33403;SDS011;19751;40.274;18.268;2023-04-03T00:52:08;17.60;;;7.43;;
33403;SDS011;19751;40.274;18.268;2023-04-03T00:54:38;11.48;;;5.07;;
33403;SDS011;19751;40.274;18.268;2023-04-03T00:57:05;12.55;;;5.65;;
33403;SDS011;19751;40.274;18.268;2023-04-03T00:59:33;13.38;;;5.05;;
33403;SDS011;19751;40.274;18.268;2023-04-03T01:02:03;13.23;;;4.93;;
33403;SDS011;19751;40.274;18.268;2023-04-03T01:07:04;12.85;;;6.15;;
33403;SDS011;19751;40.274;18.268;2023-04-03T01:09:33;18.23;;;4.82;;
33403;SDS011;19751;40.274;18.268;2023-04-03T01:14:49;16.45;;;5.80;;
33403;SDS011;19751;40.274;18.268;2023-04-03T01:17:30;10.23;;;4.03;;
33403;SDS011;19751;40.274;18.268;2023-04-03T01:22:33;12.07;;;4.00;;
33403;SDS011;19751;40.274;18.268;2023-04-03T01:25:09;10.18;;;4.22;;
33403;SDS011;19751;40.274;18.268;2023-04-03T01:27:34;12.77;;;4.75;;
33403;SDS011;19751;40.274;18.268;2023-04-03T01:30:00;10.98;;;4.18;;
33403;SDS011;19751;40.274;18.268;2023-04-03T01:32:26;16.92;;;5.22;;
33403;SDS011;19751;40.274;18.268;2023-04-03T01:34:51;8.27;;;3.85;;
33403;SDS011;19751;40.274;18.268;2023-04-03T01:37:16;15.63;;;4.43;;
33403;SDS011;19751;40.274;18.268;2023-04-03T01:39:43;12.13;;;4.15;;
33403;SDS011;19751;40.274;18.268;2023-04-03T01:42:09;13.00;;;3.85;;
33403;SDS011;19751;40.274;18.268;2023-04-03T01:44:35;12.07;;;4.25;;
33403;SDS011;19751;40.274;18.268;2023-04-03T01:47:00;7.55;;;3.58;;
33403;SDS011;19751;40.274;18.268;2023-04-03T01:49:26;9.18;;;3.22;;
33403;SDS011;19751;40.274;18.268;2023-04-03T01:51:52;8.45;;;2.83;;
33403;SDS011;19751;40.274;18.268;2023-04-03T01:54:17;11.57;;;3.22;;
33403;SDS011;19751;40.274;18.268;2023-04-03T01:56:43;12.20;;;3.03;;
33403;SDS011;19751;40.274;18.268;2023-04-03T01:59:08;9.93;;;3.13;;
33403;SDS011;19751;40.274;18.268;2023-04-03T02:01:34;6.93;;;2.60;;
33403;SDS011;19751;40.274;18.268;2023-04-03T02:03:59;9.93;;;2.75;;
33403;SDS011;19751;40.274;18.268;2023-04-03T02:06:25;5.88;;;2.50;;
33403;SDS011;19751;40.274;18.268;2023-04-03T02:08:51;11.00;;;3.78;;
33403;SDS011;19751;40.274;18.268;2023-04-03T02:11:16;9.80;;;2.92;;
33403;SDS011;19751;40.274;18.268;2023-04-03T02:13:41;12.00;;;2.97;;
33403;SDS011;19751;40.274;18.268;2023-04-03T02:16:08;10.75;;;3.58;;
33403;SDS011;19751;40.274;18.268;2023-04-03T02:18:35;12.73;;;4.10;;
33403;SDS011;19751;40.274;18.268;2023-04-03T02:21:00;8.43;;;2.30;;
33403;SDS011;19751;40.274;18.268;2023-04-03T02:23:26;12.98;;;2.72;;
33403;SDS011;19751;40.274;18.268;2023-04-03T02:25:51;10.95;;;3.50;;
33403;SDS011;19751;40.274;18.268;2023-04-03T02:28:17;7.72;;;2.20;;
33403;SDS011;19751;40.274;18.268;2023-04-03T02:30:42;9.13;;;2.40;;
33403;SDS011;19751;40.274;18.268;2023-04-03T02:33:08;8.30;;;2.67;;
33403;SDS011;19751;40.274;18.268;2023-04-03T02:35:33;12.57;;;3.00;;
33403;SDS011;19751;40.274;18.268;2023-04-03T02:37:59;9.60;;;2.95;;
33403;SDS011;19751;40.274;18.268;2023-04-03T02:40:24;8.07;;;2.20;;
33403;SDS011;19751;40.274;18.268;2023-04-03T02:42:50;9.38;;;2.20;;
33403;SDS011;19751;40.274;18.268;2023-04-03T02:45:15;12.48;;;2.13;;
33403;SDS011;19751;40.274;18.268;2023-04-03T02:47:41;12.27;;;2.63;;
33403;SDS011;19751;40.274;18.268;2023-04-03T02:50:06;14.45;;;2.92;;
33403;SDS011;19751;40.274;18.268;2023-04-03T02:52:32;14.55;;;3.15;;
33403;SDS011;19751;40.274;18.268;2023-04-03T02:54:57;8.40;;;1.80;;
33403;SDS011;19751;40.274;18.268;2023-04-03T02:57:23;10.00;;;1.92;;
33403;SDS011;19751;40.274;18.268;2023-04-03T02:59:48;8.02;;;2.38;;
33403;SDS011;19751;40.274;18.268;2023-04-03T03:02:14;8.85;;;2.00;;
33403;SDS011;19751;40.274;18.268;2023-04-03T03:04:39;9.32;;;3.50;;
33403;SDS011;19751;40.274;18.268;2023-04-03T03:07:05;11.13;;;2.90;;
33403;SDS011;19751;40.274;18.268;2023-04-03T03:09:31;11.63;;;2.47;;
33403;SDS011;19751;40.274;18.268;2023-04-03T03:11:57;12.43;;;3.00;;
33403;SDS011;19751;40.274;18.268;2023-04-03T03:14:23;10.55;;;2.85;;
33403;SDS011;19751;40.274;18.268;2023-04-03T03:16:48;12.70;;;2.90;;
33403;SDS011;19751;40.274;18.268;2023-04-03T03:19:14;10.82;;;2.65;;
33403;SDS011;19751;40.274;18.268;2023-04-03T03:21:40;7.45;;;2.30;;
33403;SDS011;19751;40.274;18.268;2023-04-03T03:24:05;9.60;;;2.42;;
33403;SDS011;19751;40.274;18.268;2023-04-03T03:26:31;9.77;;;2.53;;
33403;SDS011;19751;40.274;18.268;2023-04-03T03:28:57;10.85;;;2.78;;
33403;SDS011;19751;40.274;18.268;2023-04-03T03:31:22;9.88;;;2.55;;
33403;SDS011;19751;40.274;18.268;2023-04-03T03:33:48;15.93;;;2.83;;
33403;SDS011;19751;40.274;18.268;2023-04-03T03:36:13;8.63;;;2.28;;
33403;SDS011;19751;40.274;18.268;2023-04-03T03:38:39;11.02;;;2.88;;
33403;SDS011;19751;40.274;18.268;2023-04-03T03:41:04;12.98;;;4.05;;
33403;SDS011;19751;40.274;18.268;2023-04-03T03:43:29;14.77;;;2.95;;
33403;SDS011;19751;40.274;18.268;2023-04-03T03:45:55;9.95;;;2.42;;
33403;SDS011;19751;40.274;18.268;2023-04-03T03:48:21;16.17;;;3.78;;
33403;SDS011;19751;40.274;18.268;2023-04-03T03:50:47;12.93;;;5.15;;
33403;SDS011;19751;40.274;18.268;2023-04-03T03:53:12;9.07;;;2.55;;
33403;SDS011;19751;40.274;18.268;2023-04-03T03:55:38;11.90;;;2.35;;
33403;SDS011;19751;40.274;18.268;2023-04-03T03:58:04;12.63;;;3.55;;
33403;SDS011;19751;40.274;18.268;2023-04-03T04:00:29;11.77;;;3.53;;
33403;SDS011;19751;40.274;18.268;2023-04-03T04:02:55;9.07;;;2.63;;
33403;SDS011;19751;40.274;18.268;2023-04-03T04:05:21;12.35;;;3.28;;
33403;SDS011;19751;40.274;18.268;2023-04-03T04:07:46;8.57;;;3.03;;
33403;SDS011;19751;40.274;18.268;2023-04-03T04:10:12;12.18;;;3.67;;
33403;SDS011;19751;40.274;18.268;2023-04-03T04:12:38;16.27;;;2.58;;
33403;SDS011;19751;40.274;18.268;2023-04-03T04:15:04;15.00;;;4.35;;
33403;SDS011;19751;40.274;18.268;2023-04-03T04:17:30;12.93;;;2.95;;
33403;SDS011;19751;40.274;18.268;2023-04-03T04:19:56;13.38;;;3.00;;
33403;SDS011;19751;40.274;18.268;2023-04-03T04:22:21;11.63;;;3.28;;
33403;SDS011;19751;40.274;18.268;2023-04-03T04:24:47;13.55;;;3.30;;
33403;SDS011;19751;40.274;18.268;2023-04-03T04:27:12;12.60;;;2.85;;
33403;SDS011;19751;40.274;18.268;2023-04-03T04:29:38;12.55;;;3.25;;
33403;SDS011;19751;40.274;18.268;2023-04-03T04:32:03;10.18;;;3.22;;
33403;SDS011;19751;40.274;18.268;2023-04-03T04:34:29;16.80;;;4.70;;
33403;SDS011;19751;40.274;18.268;2023-04-03T04:36:55;15.38;;;3.85;;
33403;SDS011;19751;40.274;18.268;2023-04-03T04:39:20;12.63;;;5.15;;
33403;SDS011;19751;40.274;18.268;2023-04-03T04:41:46;12.20;;;3.50;;
33403;SDS011;19751;40.274;18.268;2023-04-03T04:44:11;8.10;;;3.38;;
33403;SDS011;19751;40.274;18.268;2023-04-03T04:46:36;14.00;;;3.30;;
33403;SDS011;19751;40.274;18.268;2023-04-03T04:49:02;11.57;;;3.47;;
33403;SDS011;19751;40.274;18.268;2023-04-03T04:51:27;21.80;;;3.85;;
33403;SDS011;19751;40.274;18.268;2023-04-03T04:53:53;7.82;;;2.95;;
33403;SDS011;19751;40.274;18.268;2023-04-03T04:56:18;7.97;;;2.90;;
33403;SDS011;19751;40.274;18.268;2023-04-03T04:58:44;8.60;;;3.13;;
33403;SDS011;19751;40.274;18.268;2023-04-03T05:01:10;11.68;;;3.08;;
33403;SDS011;19751;40.274;18.268;2023-04-03T05:03:36;20.95;;;4.53;;
33403;SDS011;19751;40.274;18.268;2023-04-03T05:06:03;15.23;;;3.53;;
33403;SDS011;19751;40.274;18.268;2023-04-03T05:08:28;16.55;;;5.20;;
33403;SDS011;19751;40.274;18.268;2023-04-03T05:10:54;15.88;;;3.58;;
33403;SDS011;19751;40.274;18.268;2023-04-03T05:13:20;18.50;;;4.97;;
33403;SDS011;19751;40.274;18.268;2023-04-03T05:15:46;13.73;;;3.97;;
33403;SDS011;19751;40.274;18.268;2023-04-03T05:18:13;13.27;;;3.72;;
33403;SDS011;19751;40.274;18.268;2023-04-03T05:20:38;14.90;;;4.53;;
33403;SDS011;19751;40.274;18.268;2023-04-03T05:23:04;11.30;;;3.75;;
33403;SDS011;19751;40.274;18.268;2023-04-03T05:25:30;11.07;;;4.53;;
33403;SDS011;19751;40.274;18.268;2023-04-03T05:27:56;16.58;;;4.80;;
33403;SDS011;19751;40.274;18.268;2023-04-03T05:30:21;13.63;;;4.72;;
33403;SDS011;19751;40.274;18.268;2023-04-03T05:32:47;15.05;;;4.70;;
33403;SDS011;19751;40.274;18.268;2023-04-03T05:35:13;10.75;;;3.80;;
33403;SDS011;19751;40.274;18.268;2023-04-03T05:37:39;10.40;;;4.10;;
33403;SDS011;19751;40.274;18.268;2023-04-03T05:40:05;22.48;;;5.95;;
33403;SDS011;19751;40.274;18.268;2023-04-03T05:42:31;12.55;;;3.83;;
33403;SDS011;19751;40.274;18.268;2023-04-03T05:44:57;12.07;;;3.45;;
33403;SDS011;19751;40.274;18.268;2023-04-03T05:47:22;11.80;;;4.30;;
33403;SDS011;19751;40.274;18.268;2023-04-03T05:49:49;9.30;;;3.42;;
33403;SDS011;19751;40.274;18.268;2023-04-03T05:52:22;17.60;;;5.80;;
33403;SDS011;19751;40.274;18.268;2023-04-03T05:54:53;16.30;;;5.90;;
33403;SDS011;19751;40.274;18.268;2023-04-03T05:57:20;13.45;;;4.47;;
33403;SDS011;19751;40.274;18.268;2023-04-03T05:59:46;16.75;;;4.43;;
33403;SDS011;19751;40.274;18.268;2023-04-03T06:02:13;11.93;;;3.70;;
33403;SDS011;19751;40.274;18.268;2023-04-03T06:04:46;8.55;;;4.10;;
33403;SDS011;19751;40.274;18.268;2023-04-03T06:07:19;10.60;;;3.05;;
33403;SDS011;19751;40.274;18.268;2023-04-03T06:09:47;12.05;;;3.67;;
33403;SDS011;19751;40.274;18.268;2023-04-03T06:12:14;13.52;;;4.22;;
33403;SDS011;19751;40.274;18.268;2023-04-03T06:14:40;9.88;;;3.67;;
33403;SDS011;19751;40.274;18.268;2023-04-03T06:17:06;12.25;;;3.45;;
33403;SDS011;19751;40.274;18.268;2023-04-03T06:19:33;20.55;;;4.45;;
33403;SDS011;19751;40.274;18.268;2023-04-03T06:21:58;10.50;;;3.78;;
33403;SDS011;19751;40.274;18.268;2023-04-03T06:24:24;12.75;;;3.53;;
33403;SDS011;19751;40.274;18.268;2023-04-03T06:26:51;12.82;;;4.68;;
33403;SDS011;19751;40.274;18.268;2023-04-03T06:29:18;10.48;;;4.00;;
33403;SDS011;19751;40.274;18.268;2023-04-03T06:31:44;11.63;;;4.88;;
33403;SDS011;19751;40.274;18.268;2023-04-03T06:34:10;12.88;;;3.97;;
33403;SDS011;19751;40.274;18.268;2023-04-03T06:36:37;17.10;;;4.78;;
33403;SDS011;19751;40.274;18.268;2023-04-03T06:39:04;10.48;;;4.30;;
33403;SDS011;19751;40.274;18.268;2023-04-03T06:41:30;13.05;;;3.58;;
33403;SDS011;19751;40.274;18.268;2023-04-03T06:43:56;9.73;;;4.82;;
33403;SDS011;19751;40.274;18.268;2023-04-03T06:46:23;8.95;;;4.25;;
33403;SDS011;19751;40.274;18.268;2023-04-03T06:48:51;13.98;;;4.32;;
33403;SDS011;19751;40.274;18.268;2023-04-03T06:51:18;9.75;;;4.00;;
33403;SDS011;19751;40.274;18.268;2023-04-03T06:53:52;12.27;;;3.75;;
33403;SDS011;19751;40.274;18.268;2023-04-03T06:56:21;11.38;;;4.45;;
33403;SDS011;19751;40.274;18.268;2023-04-03T06:58:47;15.10;;;4.38;;
33403;SDS011;19751;40.274;18.268;2023-04-03T07:01:14;10.63;;;4.00;;
33403;SDS011;19751;40.274;18.268;2023-04-03T07:03:42;12.20;;;3.50;;
33403;SDS011;19751;40.274;18.268;2023-04-03T07:06:09;12.27;;;4.20;;
33403;SDS011;19751;40.274;18.268;2023-04-03T07:08:37;17.70;;;6.10;;
33403;SDS011;19751;40.274;18.268;2023-04-03T07:11:03;9.68;;;3.45;;
33403;SDS011;19751;40.274;18.268;2023-04-03T07:13:29;8.90;;;3.78;;
33403;SDS011;19751;40.274;18.268;2023-04-03T07:15:55;10.15;;;3.85;;
33403;SDS011;19751;40.274;18.268;2023-04-03T07:18:20;12.77;;;4.28;;
33403;SDS011;19751;40.274;18.268;2023-04-03T07:20:46;8.88;;;3.13;;
33403;SDS011;19751;40.274;18.268;2023-04-03T07:23:12;10.02;;;3.65;;
33403;SDS011;19751;40.274;18.268;2023-04-03T07:25:42;11.30;;;3.05;;
33403;SDS011;19751;40.274;18.268;2023-04-03T07:28:09;13.27;;;3.53;;
33403;SDS011;19751;40.274;18.268;2023-04-03T07:30:34;9.40;;;3.03;;
33403;SDS011;19751;40.274;18.268;2023-04-03T07:33:00;9.77;;;3.13;;
33403;SDS011;19751;40.274;18.268;2023-04-03T07:35:26;11.30;;;3.58;;
33403;SDS011;19751;40.274;18.268;2023-04-03T07:37:52;11.20;;;3.65;;
33403;SDS011;19751;40.274;18.268;2023-04-03T07:40:18;9.15;;;3.55;;
33403;SDS011;19751;40.274;18.268;2023-04-03T07:42:43;11.00;;;4.20;;
33403;SDS011;19751;40.274;18.268;2023-04-03T07:45:09;8.13;;;2.88;;
33403;SDS011;19751;40.274;18.268;2023-04-03T07:47:35;10.13;;;3.10;;
33403;SDS011;19751;40.274;18.268;2023-04-03T07:50:01;7.88;;;2.42;;
33403;SDS011;19751;40.274;18.268;2023-04-03T07:52:26;11.65;;;4.70;;
33403;SDS011;19751;40.274;18.268;2023-04-03T07:54:52;10.38;;;2.78;;
33403;SDS011;19751;40.274;18.268;2023-04-03T07:57:17;10.93;;;3.03;;
33403;SDS011;19751;40.274;18.268;2023-04-03T07:59:43;12.63;;;4.50;;
33403;SDS011;19751;40.274;18.268;2023-04-03T08:02:12;7.68;;;3.00;;
33403;SDS011;19751;40.274;18.268;2023-04-03T08:04:37;6.43;;;2.53;;
33403;SDS011;19751;40.274;18.268;2023-04-03T08:07:03;11.90;;;2.53;;
33403;SDS011;19751;40.274;18.268;2023-04-03T08:09:29;7.22;;;3.08;;
33403;SDS011;19751;40.274;18.268;2023-04-03T08:11:56;9.68;;;3.13;;
33403;SDS011;19751;40.274;18.268;2023-04-03T08:14:22;8.90;;;2.65;;
33403;SDS011;19751;40.274;18.268;2023-04-03T08:16:48;8.93;;;2.45;;
33403;SDS011;19751;40.274;18.268;2023-04-03T08:19:14;16.38;;;4.38;;
33403;SDS011;19751;40.274;18.268;2023-04-03T08:21:41;8.68;;;3.75;;
33403;SDS011;19751;40.274;18.268;2023-04-03T08:24:08;6.47;;;2.42;;
33403;SDS011;19751;40.274;18.268;2023-04-03T08:26:34;9.68;;;2.55;;
33403;SDS011;19751;40.274;18.268;2023-04-03T08:29:00;4.47;;;2.22;;
33403;SDS011;19751;40.274;18.268;2023-04-03T08:31:26;12.57;;;3.50;;
33403;SDS011;19751;40.274;18.268;2023-04-03T08:33:51;7.40;;;2.15;;
33403;SDS011;19751;40.274;18.268;2023-04-03T08:36:27;10.05;;;2.55;;
33403;SDS011;19751;40.274;18.268;2023-04-03T08:38:54;5.10;;;1.85;;
33403;SDS011;19751;40.274;18.268;2023-04-03T08:51:38;7.28;;;2.97;;
33403;SDS011;19751;40.274;18.268;2023-04-03T08:54:16;12.55;;;3.58;;
33403;SDS011;19751;40.274;18.268;2023-04-03T08:56:52;6.43;;;1.95;;
33403;SDS011;19751;40.274;18.268;2023-04-03T08:59:19;9.13;;;2.70;;
33403;SDS011;19751;40.274;18.268;2023-04-03T09:01:52;10.77;;;2.60;;
33403;SDS011;19751;40.274;18.268;2023-04-03T09:04:19;12.98;;;3.80;;
33403;SDS011;19751;40.274;18.268;2023-04-03T09:06:55;8.98;;;2.05;;
33403;SDS011;19751;40.274;18.268;2023-04-03T09:09:31;10.38;;;3.45;;
33403;SDS011;19751;40.274;18.268;2023-04-03T09:22:45;4.32;;;1.23;;
33403;SDS011;19751;40.274;18.268;2023-04-03T09:25:15;3.75;;;1.27;;
33403;SDS011;19751;40.274;18.268;2023-04-03T09:27:44;7.25;;;1.85;;
33403;SDS011;19751;40.274;18.268;2023-04-03T09:30:15;5.10;;;1.50;;
33403;SDS011;19751;40.274;18.268;2023-04-03T09:32:44;2.50;;;1.10;;
33403;SDS011;19751;40.274;18.268;2023-04-03T09:37:52;2.90;;;1.05;;
33403;SDS011;19751;40.274;18.268;2023-04-03T09:42:51;6.70;;;1.52;;
33403;SDS011;19751;40.274;18.268;2023-04-03T09:45:34;10.63;;;1.63;;
33403;SDS011;19751;40.274;18.268;2023-04-03T09:48:05;9.45;;;1.70;;
33403;SDS011;19751;40.274;18.268;2023-04-03T09:58:42;7.72;;;1.98;;
33403;SDS011;19751;40.274;18.268;2023-04-03T10:04:06;5.65;;;1.80;;
33403;SDS011;19751;40.274;18.268;2023-04-03T10:06:33;10.75;;;2.45;;
33403;SDS011;19751;40.274;18.268;2023-04-03T10:09:02;10.40;;;1.80;;
33403;SDS011;19751;40.274;18.268;2023-04-03T10:11:30;6.22;;;2.47;;
33403;SDS011;19751;40.274;18.268;2023-04-03T10:14:00;12.38;;;3.22;;
33403;SDS011;19751;40.274;18.268;2023-04-03T10:21:48;10.57;;;2.95;;
33403;SDS011;19751;40.274;18.268;2023-04-03T10:24:21;5.82;;;2.33;;
33403;SDS011;19751;40.274;18.268;2023-04-03T10:27:01;11.75;;;4.00;;
33403;SDS011;19751;40.274;18.268;2023-04-03T10:29:53;10.35;;;3.50;;
33403;SDS011;19751;40.274;18.268;2023-04-03T10:51:42;4.72;;;2.17;;
33403;SDS011;19751;40.274;18.268;2023-04-03T10:56:55;3.75;;;2.28;;
33403;SDS011;19751;40.274;18.268;2023-04-03T10:59:40;9.02;;;4.22;;
33403;SDS011;19751;40.274;18.268;2023-04-03T11:02:17;8.82;;;3.33;;
33403;SDS011;19751;40.274;18.268;2023-04-03T11:04:51;12.75;;;3.95;;
33403;SDS011;19751;40.274;18.268;2023-04-03T11:07:24;13.60;;;3.10;;
33403;SDS011;19751;40.274;18.268;2023-04-03T11:09:55;12.02;;;2.53;;
33403;SDS011;19751;40.274;18.268;2023-04-03T11:12:42;13.38;;;3.38;;
33403;SDS011;19751;40.274;18.268;2023-04-03T11:15:18;8.23;;;2.42;;
33403;SDS011;19751;40.274;18.268;2023-04-03T11:20:32;11.15;;;2.15;;
33403;SDS011;19751;40.274;18.268;2023-04-03T11:25:46;11.43;;;2.15;;
33403;SDS011;19751;40.274;18.268;2023-04-03T11:28:17;12.48;;;2.65;;
33403;SDS011;19751;40.274;18.268;2023-04-03T11:33:15;4.93;;;1.98;;
33403;SDS011;19751;40.274;18.268;2023-04-03T11:38:44;11.68;;;4.43;;
33403;SDS011;19751;40.274;18.268;2023-04-03T11:41:12;15.10;;;3.58;;
33403;SDS011;19751;40.274;18.268;2023-04-03T11:43:55;17.92;;;4.30;;
33403;SDS011;19751;40.274;18.268;2023-04-03T11:49:49;5.72;;;1.40;;
33403;SDS011;19751;40.274;18.268;2023-04-03T11:52:12;16.42;;;3.83;;
33403;SDS011;19751;40.274;18.268;2023-04-03T11:54:58;9.68;;;2.40;;
33403;SDS011;19751;40.274;18.268;2023-04-03T12:08:34;7.13;;;2.38;;
33403;SDS011;19751;40.274;18.268;2023-04-03T12:16:20;5.97;;;1.90;;
33403;SDS011;19751;40.274;18.268;2023-04-03T12:27:01;5.43;;;1.83;;
33403;SDS011;19751;40.274;18.268;2023-04-03T12:45:59;8.27;;;1.83;;
33403;SDS011;19751;40.274;18.268;2023-04-03T12:48:51;9.02;;;1.63;;
33403;SDS011;19751;40.274;18.268;2023-04-03T12:51:32;11.55;;;2.03;;
33403;SDS011;19751;40.274;18.268;2023-04-03T12:54:03;5.43;;;1.80;;
33403;SDS011;19751;40.274;18.268;2023-04-03T12:56:38;9.10;;;1.75;;
33403;SDS011;19751;40.274;18.268;2023-04-03T13:01:52;5.18;;;1.80;;
33403;SDS011;19751;40.274;18.268;2023-04-03T13:04:22;7.82;;;2.25;;
33403;SDS011;19751;40.274;18.268;2023-04-03T13:06:48;7.13;;;1.88;;
33403;SDS011;19751;40.274;18.268;2023-04-03T13:09:25;9.07;;;1.73;;
33403;SDS011;19751;40.274;18.268;2023-04-03T13:12:12;8.90;;;2.50;;
33403;SDS011;19751;40.274;18.268;2023-04-03T13:14:40;10.70;;;3.20;;
33403;SDS011;19751;40.274;18.268;2023-04-03T13:17:16;14.63;;;4.00;;
33403;SDS011;19751;40.274;18.268;2023-04-03T13:19:42;13.10;;;3.30;;
33403;SDS011;19751;40.274;18.268;2023-04-03T13:25:08;6.97;;;2.88;;
33403;SDS011;19751;40.274;18.268;2023-04-03T13:27:36;6.10;;;1.65;;
33403;SDS011;19751;40.274;18.268;2023-04-03T13:30:04;6.20;;;1.75;;
33403;SDS011;19751;40.274;18.268;2023-04-03T13:32:31;11.82;;;2.22;;
33403;SDS011;19751;40.274;18.268;2023-04-03T13:34:57;5.63;;;1.38;;
33403;SDS011;19751;40.274;18.268;2023-04-03T13:37:28;3.72;;;1.33;;
33403;SDS011;19751;40.274;18.268;2023-04-03T13:39:58;3.83;;;1.20;;
33403;SDS011;19751;40.274;18.268;2023-04-03T13:42:33;4.07;;;1.42;;
33403;SDS011;19751;40.274;18.268;2023-04-03T13:47:43;5.13;;;1.40;;
33403;SDS011;19751;40.274;18.268;2023-04-03T13:50:28;2.80;;;1.77;;
33403;SDS011;19751;40.274;18.268;2023-04-03T13:52:59;3.45;;;1.98;;
33403;SDS011;19751;40.274;18.268;2023-04-03T13:55:34;4.25;;;1.92;;
33403;SDS011;19751;40.274;18.268;2023-04-03T13:58:16;3.72;;;1.60;;
33403;SDS011;19751;40.274;18.268;2023-04-03T14:03:22;5.82;;;1.90;;
33403;SDS011;19751;40.274;18.268;2023-04-03T14:05:47;2.80;;;1.42;;
33403;SDS011;19751;40.274;18.268;2023-04-03T14:08:13;6.18;;;3.05;;
33403;SDS011;19751;40.274;18.268;2023-04-03T14:10:39;5.32;;;1.65;;
33403;SDS011;19751;40.274;18.268;2023-04-03T14:13:05;6.55;;;1.50;;
33403;SDS011;19751;40.274;18.268;2023-04-03T14:15:31;4.40;;;2.00;;
33403;SDS011;19751;40.274;18.268;2023-04-03T14:17:57;3.72;;;0.98;;
33403;SDS011;19751;40.274;18.268;2023-04-03T14:20:24;4.50;;;1.10;;
33403;SDS011;19751;40.274;18.268;2023-04-03T14:22:51;1.98;;;0.80;;
33403;SDS011;19751;40.274;18.268;2023-04-03T14:25:19;5.82;;;0.88;;
33403;SDS011;19751;40.274;18.268;2023-04-03T14:27:47;1.35;;;0.60;;
33403;SDS011;19751;40.274;18.268;2023-04-03T14:32:46;1.42;;;0.57;;
33403;SDS011;19751;40.274;18.268;2023-04-03T14:35:12;3.03;;;0.85;;
33403;SDS011;19751;40.274;18.268;2023-04-03T14:37:38;0.88;;;0.50;;
33403;SDS011;19751;40.274;18.268;2023-04-03T14:40:04;1.42;;;0.80;;
33403;SDS011;19751;40.274;18.268;2023-04-03T14:42:33;1.45;;;0.40;;
33403;SDS011;19751;40.274;18.268;2023-04-03T14:45:02;0.68;;;0.55;;
33403;SDS011;19751;40.274;18.268;2023-04-03T14:47:44;1.35;;;0.60;;
33403;SDS011;19751;40.274;18.268;2023-04-03T14:50:15;4.72;;;0.95;;
33403;SDS011;19751;40.274;18.268;2023-04-03T14:52:46;1.73;;;0.70;;
33403;SDS011;19751;40.274;18.268;2023-04-03T14:55:12;3.50;;;0.50;;
33403;SDS011;19751;40.274;18.268;2023-04-03T14:57:40;2.05;;;0.50;;
33403;SDS011;19751;40.274;18.268;2023-04-03T15:00:07;4.15;;;0.70;;
33403;SDS011;19751;40.274;18.268;2023-04-03T15:02:38;1.20;;;0.63;;
33403;SDS011;19751;40.274;18.268;2023-04-03T15:05:05;1.77;;;0.80;;
33403;SDS011;19751;40.274;18.268;2023-04-03T15:07:33;1.40;;;0.90;;
33403;SDS011;19751;40.274;18.268;2023-04-03T15:10:02;2.05;;;0.90;;
33403;SDS011;19751;40.274;18.268;2023-04-03T15:12:39;2.35;;;0.90;;
33403;SDS011;19751;40.274;18.268;2023-04-03T15:15:05;5.30;;;1.25;;
33403;SDS011;19751;40.274;18.268;2023-04-03T15:17:31;3.63;;;0.70;;
33403;SDS011;19751;40.274;18.268;2023-04-03T15:19:57;2.55;;;0.90;;
33403;SDS011;19751;40.274;18.268;2023-04-03T15:22:23;2.63;;;0.90;;
33403;SDS011;19751;40.274;18.268;2023-04-03T15:24:49;3.65;;;1.10;;
33403;SDS011;19751;40.274;18.268;2023-04-03T15:27:15;3.67;;;2.42;;
33403;SDS011;19751;40.274;18.268;2023-04-03T15:29:41;5.55;;;1.85;;
33403;SDS011;19751;40.274;18.268;2023-04-03T15:32:07;4.82;;;2.83;;
33403;SDS011;19751;40.274;18.268;2023-04-03T15:34:34;4.20;;;1.70;;
33403;SDS011;19751;40.274;18.268;2023-04-03T15:37:00;4.50;;;1.77;;
33403;SDS011;19751;40.274;18.268;2023-04-03T15:39:26;4.78;;;2.00;;
33403;SDS011;19751;40.274;18.268;2023-04-03T15:41:52;4.07;;;1.98;;
33403;SDS011;19751;40.274;18.268;2023-04-03T15:44:18;3.40;;;2.65;;
33403;SDS011;19751;40.274;18.268;2023-04-03T15:46:47;3.25;;;2.72;;
33403;SDS011;19751;40.274;18.268;2023-04-03T15:49:16;4.95;;;2.20;;
33403;SDS011;19751;40.274;18.268;2023-04-03T15:51:42;4.80;;;2.80;;
33403;SDS011;19751;40.274;18.268;2023-04-03T15:54:08;6.78;;;2.72;;
33403;SDS011;19751;40.274;18.268;2023-04-03T15:56:34;11.85;;;3.63;;
33403;SDS011;19751;40.274;18.268;2023-04-03T15:58:59;6.10;;;2.90;;
33403;SDS011;19751;40.274;18.268;2023-04-03T16:01:25;3.85;;;2.42;;
33403;SDS011;19751;40.274;18.268;2023-04-03T16:03:50;3.83;;;2.30;;
33403;SDS011;19751;40.274;18.268;2023-04-03T16:06:16;5.30;;;2.65;;
33403;SDS011;19751;40.274;18.268;2023-04-03T16:08:44;4.43;;;2.42;;
33403;SDS011;19751;40.274;18.268;2023-04-03T16:11:10;4.28;;;2.78;;
33403;SDS011;19751;40.274;18.268;2023-04-03T16:13:35;4.32;;;2.47;;
33403;SDS011;19751;40.274;18.268;2023-04-03T16:16:01;7.10;;;2.58;;
33403;SDS011;19751;40.274;18.268;2023-04-03T16:18:27;6.93;;;2.33;;
33403;SDS011;19751;40.274;18.268;2023-04-03T16:20:53;2.38;;;1.98;;
33403;SDS011;19751;40.274;18.268;2023-04-03T16:23:20;6.93;;;2.92;;
33403;SDS011;19751;40.274;18.268;2023-04-03T16:25:45;6.63;;;2.80;;
33403;SDS011;19751;40.274;18.268;2023-04-03T16:28:14;8.55;;;2.92;;
33403;SDS011;19751;40.274;18.268;2023-04-03T16:30:42;9.52;;;3.45;;
33403;SDS011;19751;40.274;18.268;2023-04-03T16:33:09;8.30;;;2.92;;
33403;SDS011;19751;40.274;18.268;2023-04-03T16:35:35;4.00;;;2.35;;
33403;SDS011;19751;40.274;18.268;2023-04-03T16:38:01;6.47;;;2.67;;
33403;SDS011;19751;40.274;18.268;2023-04-03T16:40:26;17.15;;;2.95;;
33403;SDS011;19751;40.274;18.268;2023-04-03T16:42:52;4.07;;;2.30;;
33403;SDS011;19751;40.274;18.268;2023-04-03T16:45:17;4.43;;;2.55;;
33403;SDS011;19751;40.274;18.268;2023-04-03T16:47:43;5.22;;;1.65;;
33403;SDS011;19751;40.274;18.268;2023-04-03T16:50:09;6.28;;;1.60;;
33403;SDS011;19751;40.274;18.268;2023-04-03T16:52:35;11.15;;;1.73;;